Terminal Aerodrome Forecast
Issued by NWS

Home | Current Version | Previous Version | Text Only | Print | Product List | Glossary On
Versions: 1 2 3 4 5 6 7 8 9 10 11 12 13 14 15 16 17 18 19 20 21 22 23 24 25 26 27 28 29 30 31 32 33 34 35 36 37 38 39 40 41 42 43 44 45 46
000
FTUS46 KLOX 161413 AAA
TAFSBP
TAF AMD
KSBP 161413Z 1614/1712 15007KT P6SM VCSH SCT015 BKN035
     FM161800 15012G20KT 5SM -RA BR SCT012 BKN025 OVC040
     FM162100 09015KT 4SM RA OVC007
     FM170300 23014KT 2SM RA BR OVC025
     FM170900 16016KT 2SM RA BR OVC010=

USA.gov is the U.S. government's official web portal to all federal, state and local government web resources and services.